Time;durP1;ratioP1;P1;durP2;ratioP2;P2;SDS_P1;SDS_P2;PMS_P1;PMS_P2;Temp;Humidity;BMP_temperature;BMP_pressure;BME280_temperature;BME280_humidity;BME280_pressure;Samples;Min_cycle;Max_cycle;Signal;HPM_P1;HPM_P2
2022/05/11 00:01:58;;;;;;;2.22;0.60;;;17.20;90.30;;;;;;4928124;28;20042;-87
2022/05/11 00:04:25;;;;;;;3.08;0.73;;;17.20;90.40;;;;;;4946641;28;20046;-82
2022/05/11 00:06:51;;;;;;;2.15;0.60;;;17.20;90.60;;;;;;4931510;28;20069;-85
2022/05/11 00:09:19;;;;;;;2.20;0.88;;;17.20;90.70;;;;;;4933546;28;20050;-85
2022/05/11 00:11:46;;;;;;;3.75;0.95;;;17.10;90.80;;;;;;4930067;28;20035;-85
2022/05/11 00:14:14;;;;;;;1.67;0.60;;;17.20;90.90;;;;;;4959953;28;20038;-85
2022/05/11 00:16:41;;;;;;;3.83;0.60;;;17.20;91.10;;;;;;4937597;28;20039;-84
2022/05/11 00:19:08;;;;;;;2.97;0.70;;;17.10;91.20;;;;;;4959265;28;20035;-85
2022/05/11 00:21:34;;;;;;;2.22;0.70;;;17.20;91.50;;;;;;4935155;28;20046;-86
2022/05/11 00:24:01;;;;;;;2.15;0.60;;;17.10;91.30;;;;;;4960059;28;20529;-85
2022/05/11 00:26:28;;;;;;;3.28;0.60;;;17.10;91.30;;;;;;4948541;28;20035;-85
2022/05/11 00:28:55;;;;;;;1.42;0.52;;;17.10;91.30;;;;;;4944104;28;20038;-85
2022/05/11 00:31:21;;;;;;;2.67;0.60;;;17.10;91.40;;;;;;4946060;28;20039;-86
2022/05/11 00:33:48;;;;;;;3.00;0.77;;;17.10;91.50;;;;;;4951950;28;20046;-84
2022/05/11 00:36:14;;;;;;;3.47;0.60;;;17.10;91.70;;;;;;4970958;28;20049;-84
2022/05/11 00:38:41;;;;;;;2.35;0.60;;;17.10;91.70;;;;;;4972013;28;20058;-85
2022/05/11 00:41:08;;;;;;;1.98;0.60;;;17.10;91.70;;;;;;4963960;28;20043;-85
2022/05/11 00:43:40;;;;;;;2.90;0.50;;;17.10;91.90;;;;;;4938729;28;20063;-86
2022/05/11 00:46:31;;;;;;;2.60;0.68;;;17.10;92.00;;;;;;4949267;28;20027;-85
2022/05/11 00:51:59;;;;;;;1.52;0.60;;;17.10;92.10;;;;;;4964683;28;20035;-85
2022/05/11 00:54:25;;;;;;;;;;;17.10;92.10;;;;;;4988721;28;20054;-85
2022/05/11 00:57:00;;;;;;;1.33;0.73;;;17.00;92.20;;;;;;4946886;28;19917;-85
2022/05/11 00:59:32;;;;;;;1.85;0.57;;;17.00;92.30;;;;;;4966535;28;20034;-86
2022/05/11 01:02:04;;;;;;;2.03;0.60;;;17.00;92.50;;;;;;4964720;28;20031;-85
2022/05/11 01:04:37;;;;;;;3.58;0.70;;;17.00;92.50;;;;;;4964285;28;20047;-85
2022/05/11 01:07:04;;;;;;;1.70;0.80;;;17.00;92.60;;;;;;4975077;28;20055;-85
2022/05/11 01:09:31;;;;;;;3.20;0.80;;;16.90;92.70;;;;;;4966756;28;20486;-85
2022/05/11 01:12:00;;;;;;;1.95;0.60;;;16.90;92.70;;;;;;4966961;28;20031;-85
2022/05/11 01:14:33;;;;;;;0.80;0.40;;;16.90;92.80;;;;;;4971795;28;20038;-85
2022/05/11 01:17:00;;;;;;;2.05;0.60;;;16.90;92.90;;;;;;4952178;28;20053;-85
2022/05/11 01:19:40;;;;;;;1.38;0.57;;;16.90;92.90;;;;;;4956150;28;20047;-85
2022/05/11 01:22:20;;;;;;;2.75;0.70;;;16.90;93.10;;;;;;4957701;28;21377;-85
2022/05/11 01:24:48;;;;;;;1.55;0.88;;;16.90;93.10;;;;;;4960461;28;20046;-85
2022/05/11 01:27:43;;;;;;;2.63;0.60;;;16.80;93.00;;;;;;4953503;28;20046;-85
2022/05/11 01:30:12;;;;;;;1.80;0.70;;;16.80;93.10;;;;;;4970927;28;20057;-85
2022/05/11 01:32:41;;;;;;;5.22;0.80;;;16.80;93.00;;;;;;4956475;28;20383;-85
2022/05/11 01:35:14;;;;;;;4.47;1.15;;;16.80;92.90;;;;;;4964191;28;20035;-85
2022/05/11 01:37:49;;;;;;;3.83;0.93;;;16.90;92.90;;;;;;4962560;28;20055;-85
2022/05/11 01:40:15;;;;;;;2.05;1.00;;;16.90;92.90;;;;;;4979795;28;20050;-85
2022/05/11 01:42:42;;;;;;;2.75;1.00;;;16.80;92.90;;;;;;4964630;28;20051;-85
2022/05/11 01:45:08;;;;;;;1.95;0.73;;;16.80;92.80;;;;;;4954213;28;20044;-85
2022/05/11 01:47:35;;;;;;;2.47;0.93;;;16.80;92.80;;;;;;4953080;28;20055;-85
2022/05/11 01:50:01;;;;;;;2.83;1.10;;;16.80;92.80;;;;;;4955084;28;20034;-85
2022/05/11 01:52:28;;;;;;;2.92;1.05;;;16.80;92.80;;;;;;4963519;28;20052;-85
2022/05/11 01:54:54;;;;;;;3.70;1.10;;;16.80;92.80;;;;;;4962872;28;20039;-85
2022/05/11 01:57:20;;;;;;;2.72;0.90;;;16.80;92.70;;;;;;4954688;28;20050;-85
2022/05/11 01:59:47;;;;;;;2.38;0.80;;;16.80;92.60;;;;;;4971429;28;20039;-85
2022/05/11 02:02:13;;;;;;;1.90;0.90;;;16.80;92.60;;;;;;4964826;28;20368;-85
2022/05/11 02:10:10;;;;;;;2.83;1.05;;;16.80;92.50;;;;;;4971906;28;20050;-85
2022/05/11 02:12:38;;;;;;;3.35;1.20;;;16.80;92.50;;;;;;4950070;28;20035;-85
2022/05/11 02:15:05;;;;;;;4.03;1.40;;;16.80;92.60;;;;;;4977771;28;20034;-85
2022/05/11 02:17:32;;;;;;;3.03;1.30;;;16.80;92.60;;;;;;4964340;28;20059;-85
2022/05/11 02:19:58;;;;;;;1.92;0.90;;;16.70;92.60;;;;;;4961662;28;20062;-85
2022/05/11 02:22:24;;;;;;;4.25;1.05;;;16.70;92.50;;;;;;4974708;28;20340;-85
2022/05/11 02:24:51;;;;;;;2.45;1.00;;;16.80;92.50;;;;;;4962863;28;20054;-85
2022/05/11 02:27:18;;;;;;;2.92;0.90;;;16.70;92.50;;;;;;4959178;28;20039;-85
2022/05/11 02:29:44;;;;;;;3.92;1.38;;;16.80;92.50;;;;;;4977541;28;20058;-85
2022/05/11 02:32:10;;;;;;;1.98;1.08;;;16.70;92.40;;;;;;4976708;28;20035;-85
2022/05/11 02:37:22;;;;;;;1.73;1.10;;;16.70;92.40;;;;;;4983994;28;20039;-85
2022/05/11 02:39:49;;;;;;;3.10;1.10;;;16.70;92.40;;;;;;4963783;28;20039;-85
2022/05/11 02:42:17;;;;;;;3.33;1.00;;;16.70;92.40;;;;;;4964717;28;20053;-85
2022/05/11 02:44:43;;;;;;;2.22;1.10;;;16.70;92.40;;;;;;4977080;28;20054;-85
2022/05/11 02:47:10;;;;;;;2.78;0.88;;;16.70;92.40;;;;;;4968031;28;20511;-86
2022/05/11 02:49:36;;;;;;;2.17;0.73;;;16.70;92.40;;;;;;4960690;28;20047;-85
2022/05/11 02:52:03;;;;;;;2.13;0.82;;;16.70;92.40;;;;;;4956625;28;20039;-86
2022/05/11 02:54:29;;;;;;;2.65;1.05;;;16.70;92.30;;;;;;4955048;28;20031;-86
2022/05/11 02:56:56;;;;;;;3.13;0.80;;;16.70;92.40;;;;;;4948170;28;20039;-86
2022/05/11 02:59:22;;;;;;;3.25;1.10;;;16.70;92.40;;;;;;4954027;28;20039;-85
2022/05/11 03:01:51;;;;;;;2.13;0.80;;;16.70;92.50;;;;;;4976635;28;20039;-86
2022/05/11 03:04:19;;;;;;;2.55;0.95;;;16.70;92.50;;;;;;4936864;28;20046;-86
2022/05/11 03:06:47;;;;;;;2.47;1.13;;;16.60;92.50;;;;;;4952988;28;20058;-85
2022/05/11 03:09:17;;;;;;;3.05;0.98;;;16.60;92.60;;;;;;4962889;28;20478;-85
2022/05/11 03:11:45;;;;;;;3.90;1.60;;;16.60;92.70;;;;;;4983661;28;20031;-78
2022/05/11 03:14:12;;;;;;;2.38;1.08;;;16.60;92.70;;;;;;4952724;28;21040;-77
2022/05/11 03:16:39;;;;;;;2.70;0.80;;;16.60;92.80;;;;;;4967577;28;20058;-78
2022/05/11 03:19:06;;;;;;;2.00;1.30;;;16.60;92.80;;;;;;4946177;28;20062;-77
2022/05/11 03:21:33;;;;;;;3.15;1.23;;;16.50;92.80;;;;;;4943932;28;20043;-77
2022/05/11 03:24:00;;;;;;;3.05;1.30;;;16.60;92.90;;;;;;4959627;28;20038;-78
2022/05/11 03:26:27;;;;;;;3.30;1.40;;;16.50;93.00;;;;;;4910972;28;20038;-78
2022/05/11 03:28:53;;;;;;;2.40;1.42;;;16.50;93.00;;;;;;4953014;28;20047;-77
2022/05/11 03:31:20;;;;;;;3.78;1.38;;;16.50;93.20;;;;;;4968424;28;20054;-78
2022/05/11 03:36:33;;;;;;;4.97;1.90;;;16.50;93.30;;;;;;4959668;28;20039;-77
2022/05/11 03:38:59;;;;;;;3.22;1.30;;;16.50;93.40;;;;;;4945668;28;20039;-77
2022/05/11 03:41:26;;;;;;;4.82;1.70;;;16.50;93.40;;;;;;4981705;28;20050;-77
2022/05/11 03:43:52;;;;;;;3.25;1.90;;;16.50;93.50;;;;;;4933888;28;20407;-77
2022/05/11 03:46:18;;;;;;;3.17;1.33;;;16.50;93.60;;;;;;4947470;28;20051;-77
2022/05/11 03:48:45;;;;;;;3.42;1.67;;;16.50;93.70;;;;;;4981283;28;20043;-77
2022/05/11 03:51:14;;;;;;;4.00;2.05;;;16.40;93.70;;;;;;4955015;28;20054;-77
2022/05/11 03:53:42;;;;;;;2.35;1.73;;;16.40;93.70;;;;;;4972115;28;20419;-77
2022/05/11 03:56:11;;;;;;;6.00;2.25;;;16.50;93.80;;;;;;4959650;28;20400;-77
2022/05/11 03:58:41;;;;;;;3.70;1.35;;;16.40;93.90;;;;;;4952861;28;20039;-77
2022/05/11 04:01:08;;;;;;;3.53;1.90;;;16.40;93.90;;;;;;4976764;28;20487;-77
2022/05/11 04:03:39;;;;;;;2.33;1.00;;;16.40;93.90;;;;;;4975468;28;20414;-84
2022/05/11 04:06:20;;;;;;;2.05;1.38;;;16.40;93.90;;;;;;4977477;28;20051;-84
2022/05/11 04:08:46;;;;;;;2.83;1.25;;;16.50;93.90;;;;;;4963397;28;20043;-84
2022/05/11 04:11:17;;;;;;;4.95;1.92;;;16.40;93.90;;;;;;4979388;28;20058;-84
2022/05/11 04:13:45;;;;;;;2.65;1.60;;;16.50;93.90;;;;;;4962560;28;20498;-85
2022/05/11 04:16:16;;;;;;;2.50;1.70;;;16.50;93.90;;;;;;4944631;28;20387;-85
2022/05/11 04:18:48;;;;;;;2.40;1.05;;;16.50;93.90;;;;;;4959789;28;20403;-84
2022/05/11 04:21:15;;;;;;;3.35;1.40;;;16.50;93.90;;;;;;4942840;28;20513;-85
2022/05/11 04:23:44;;;;;;;2.00;0.98;;;16.50;93.90;;;;;;4978863;28;20055;-84
2022/05/11 04:26:18;;;;;;;6.80;2.10;;;16.50;93.90;;;;;;4961224;28;20050;-85
2022/05/11 04:28:44;;;;;;;2.50;1.77;;;16.50;94.00;;;;;;4972214;28;20042;-85
2022/05/11 04:31:13;;;;;;;3.63;1.60;;;16.60;94.00;;;;;;4968484;28;20310;-85
2022/05/11 04:33:40;;;;;;;2.85;1.58;;;16.60;94.10;;;;;;4960372;28;20525;-86
2022/05/11 04:36:07;;;;;;;6.32;1.55;;;16.50;94.00;;;;;;4962279;28;20027;-85
2022/05/11 04:38:36;;;;;;;3.58;1.70;;;16.60;94.10;;;;;;4973433;28;20039;-89
2022/05/11 04:41:03;;;;;;;5.35;2.40;;;16.60;94.10;;;;;;4986224;28;20057;-87
2022/05/11 04:43:30;;;;;;;3.30;1.80;;;16.60;94.10;;;;;;4967220;28;20394;-85
2022/05/11 04:45:58;;;;;;;3.47;2.25;;;16.60;94.20;;;;;;4954159;28;20039;-84
2022/05/11 04:48:28;;;;;;;4.30;2.17;;;16.60;94.10;;;;;;4959738;28;20043;-85
2022/05/11 04:51:00;;;;;;;5.20;1.52;;;16.70;94.10;;;;;;4957278;28;20114;-84
2022/05/11 04:53:27;;;;;;;3.33;1.63;;;16.70;94.10;;;;;;4965178;28;20070;-84
2022/05/11 04:55:54;;;;;;;4.47;2.05;;;16.70;94.10;;;;;;4961536;28;20043;-84
2022/05/11 04:58:21;;;;;;;4.05;2.25;;;16.70;94.00;;;;;;4969957;28;20502;-84
2022/05/11 05:00:47;;;;;;;2.28;1.23;;;16.70;94.30;;;;;;4976820;28;20032;-86
2022/05/11 05:03:15;;;;;;;2.03;1.25;;;16.80;94.10;;;;;;4921824;28;20038;-84
2022/05/11 05:05:43;;;;;;;3.72;1.35;;;16.80;94.00;;;;;;4976793;28;20053;-85
2022/05/11 05:08:09;;;;;;;2.22;1.52;;;16.80;94.00;;;;;;4961325;28;20047;-85
2022/05/11 05:10:36;;;;;;;5.32;2.22;;;16.80;94.00;;;;;;4932068;28;20039;-84
2022/05/11 05:13:06;;;;;;;5.32;2.35;;;16.80;94.00;;;;;;4963045;28;20031;-84
2022/05/11 05:15:35;;;;;;;4.05;1.27;;;16.80;94.10;;;;;;4953964;28;20034;-84
2022/05/11 05:18:05;;;;;;;3.45;1.92;;;16.80;94.10;;;;;;4961141;28;20027;-84
2022/05/11 05:20:32;;;;;;;3.85;1.25;;;16.90;94.10;;;;;;4957422;28;20529;-86
2022/05/11 05:22:58;;;;;;;3.05;1.30;;;17.00;94.10;;;;;;4951388;28;20043;-84
2022/05/11 05:25:25;;;;;;;5.07;1.45;;;17.00;94.00;;;;;;4959932;28;20058;-83
2022/05/11 05:27:53;;;;;;;2.25;1.25;;;17.00;93.90;;;;;;4981686;28;20039;-84
2022/05/11 05:33:05;;;;;;;3.53;1.48;;;17.10;93.90;;;;;;4973529;28;20491;-84
2022/05/11 05:35:31;;;;;;;3.90;1.30;;;17.10;93.90;;;;;;4960154;28;20592;-83
2022/05/11 05:37:58;;;;;;;2.10;1.08;;;17.10;93.90;;;;;;4959463;28;20485;-83
2022/05/11 05:40:24;;;;;;;2.28;1.25;;;17.10;93.80;;;;;;4956527;28;20373;-83
2022/05/11 05:42:50;;;;;;;3.13;1.17;;;17.10;93.80;;;;;;4961506;28;20039;-84
2022/05/11 05:45:17;;;;;;;3.75;1.20;;;17.10;93.80;;;;;;4980413;28;20615;-82
2022/05/11 05:47:43;;;;;;;1.80;0.82;;;17.20;93.80;;;;;;4987141;28;20042;-83
2022/05/11 05:50:10;;;;;;;2.85;1.05;;;17.20;93.70;;;;;;4960482;28;20062;-85
2022/05/11 05:52:40;;;;;;;4.22;1.50;;;17.20;93.60;;;;;;4953629;28;20038;-83
2022/05/11 05:55:08;;;;;;;4.63;1.85;;;17.30;93.50;;;;;;4962775;28;20031;-83
2022/05/11 05:57:34;;;;;;;2.47;0.80;;;17.50;93.40;;;;;;4965024;28;20055;-83
2022/05/11 06:00:04;;;;;;;2.35;0.88;;;17.60;93.20;;;;;;4954229;28;20047;-82
2022/05/11 06:02:32;;;;;;;5.35;0.93;;;17.90;92.90;;;;;;4967611;28;20039;-79
2022/05/11 06:04:59;;;;;;;2.78;1.25;;;18.10;92.70;;;;;;4962245;28;20058;-79
2022/05/11 06:07:26;;;;;;;2.83;1.10;;;18.20;92.30;;;;;;4969090;28;20407;-79
2022/05/11 06:09:53;;;;;;;2.40;1.00;;;18.40;92.30;;;;;;4983619;28;20035;-83
2022/05/11 06:12:19;;;;;;;3.85;0.95;;;18.50;91.70;;;;;;4954943;28;20035;-83
2022/05/11 06:14:58;;;;;;;2.38;0.88;;;18.60;91.50;;;;;;4966376;28;20032;-82
2022/05/11 06:17:25;;;;;;;3.72;1.45;;;18.70;91.30;;;;;;4966467;28;20038;-83
2022/05/11 06:19:53;;;;;;;5.28;1.50;;;18.70;91.00;;;;;;4968531;28;20074;-83
2022/05/11 06:22:21;;;;;;;6.03;1.02;;;18.70;91.00;;;;;;4986004;28;20106;-83
2022/05/11 06:24:48;;;;;;;3.33;1.02;;;18.80;90.80;;;;;;4951459;28;20411;-82
2022/05/11 06:27:19;;;;;;;4.13;1.35;;;18.90;90.60;;;;;;4962564;28;20027;-82
2022/05/11 06:29:54;;;;;;;7.72;1.10;;;19.10;89.70;;;;;;4976734;28;20045;-83
2022/05/11 06:32:24;;;;;;;4.70;0.90;;;19.30;89.10;;;;;;4958733;28;20039;-84
2022/05/11 06:34:52;;;;;;;2.60;0.68;;;19.60;87.80;;;;;;4975081;28;20053;-83
2022/05/11 06:37:20;;;;;;;2.40;0.82;;;19.90;86.90;;;;;;4961736;28;20039;-84
2022/05/11 06:39:48;;;;;;;2.58;0.63;;;20.10;86.00;;;;;;4965146;28;20218;-83
2022/05/11 06:42:16;;;;;;;2.97;0.90;;;20.30;84.40;;;;;;4970395;28;20031;-84
2022/05/11 06:44:43;;;;;;;2.95;0.60;;;20.40;83.00;;;;;;4950256;28;20395;-83
2022/05/11 06:47:10;;;;;;;2.05;0.50;;;20.40;82.30;;;;;;4951998;28;20051;-83
2022/05/11 06:49:36;;;;;;;2.47;0.85;;;20.60;82.10;;;;;;4939800;28;20058;-79
2022/05/11 06:52:03;;;;;;;5.32;1.13;;;20.80;80.90;;;;;;4970082;28;20525;-78
2022/05/11 06:59:59;;;;;;;2.83;0.60;;;21.00;78.80;;;;;;4962028;28;20497;-84
2022/05/11 07:02:34;;;;;;;3.70;0.55;;;20.80;78.10;;;;;;4953705;28;20492;-86
2022/05/11 07:05:04;;;;;;;2.65;0.60;;;20.70;77.80;;;;;;4984101;28;20043;-86
2022/05/11 07:07:31;;;;;;;3.75;0.60;;;20.70;77.90;;;;;;4958552;28;20039;-82
2022/05/11 07:09:57;;;;;;;3.55;0.70;;;20.80;77.60;;;;;;4957880;28;20042;-80
2022/05/11 07:12:38;;;;;;;3.13;0.70;;;20.80;76.70;;;;;;4983635;28;20046;-85
2022/05/11 07:15:08;;;;;;;3.17;0.82;;;20.90;76.50;;;;;;4937917;28;20066;-86
2022/05/11 07:17:39;;;;;;;4.20;0.52;;;21.00;75.50;;;;;;4958346;28;20038;-86
2022/05/11 07:20:16;;;;;;;4.20;1.00;;;21.10;75.10;;;;;;4967018;28;20039;-85
2022/05/11 07:22:43;;;;;;;2.92;0.70;;;21.30;74.40;;;;;;4956843;28;20039;-86
2022/05/11 07:25:12;;;;;;;4.13;0.95;;;21.50;74.00;;;;;;4974502;28;20762;-86
2022/05/11 07:27:39;;;;;;;3.13;1.00;;;21.60;73.00;;;;;;4932823;28;20517;-86
2022/05/11 07:30:10;;;;;;;2.42;0.60;;;21.60;72.80;;;;;;4956018;28;20039;-87
2022/05/11 07:32:37;;;;;;;4.47;0.80;;;21.70;72.30;;;;;;4973968;28;20035;-87
2022/05/11 07:35:04;;;;;;;3.28;0.63;;;21.60;71.60;;;;;;4934283;28;20379;-82
2022/05/11 07:37:31;;;;;;;2.72;0.50;;;21.40;71.90;;;;;;4961556;28;20035;-84
2022/05/11 07:39:59;;;;;;;3.10;0.70;;;21.30;71.10;;;;;;4951690;28;20039;-86
2022/05/11 07:42:27;;;;;;;5.50;0.70;;;21.20;70.70;;;;;;4938361;28;20046;-85
2022/05/11 07:45:01;;;;;;;4.57;0.88;;;21.20;70.20;;;;;;4940506;28;20039;-85
2022/05/11 07:47:28;;;;;;;3.92;0.50;;;21.20;69.90;;;;;;4933264;28;20039;-86
2022/05/11 07:49:54;;;;;;;1.77;0.43;;;21.30;69.10;;;;;;4968636;28;20427;-80
2022/05/11 07:52:20;;;;;;;4.00;0.60;;;21.30;68.80;;;;;;4975641;28;20042;-80
2022/05/11 07:54:49;;;;;;;3.55;0.60;;;21.30;68.80;;;;;;4932760;28;20039;-80
2022/05/11 08:00:08;;;;;;;2.50;0.40;;;21.30;68.60;;;;;;4966044;28;20039;-79
2022/05/11 08:02:40;;;;;;;4.43;0.75;;;21.40;68.50;;;;;;4962914;28;20030;-85
2022/05/11 08:05:10;;;;;;;4.20;0.88;;;21.30;68.00;;;;;;4958946;28;20031;-86
2022/05/11 08:07:40;;;;;;;2.70;0.40;;;21.30;68.20;;;;;;4959398;28;20066;-85
2022/05/11 08:10:10;;;;;;;2.40;0.40;;;21.30;68.20;;;;;;4945409;28;20042;-83
2022/05/11 08:12:43;;;;;;;3.60;0.40;;;21.30;68.20;;;;;;4953480;28;20498;-86
2022/05/11 08:15:12;;;;;;;1.92;0.95;;;21.30;68.20;;;;;;4968672;28;20031;-85
2022/05/11 08:17:42;;;;;;;3.10;0.70;;;21.30;68.50;;;;;;4949987;28;20042;-86
2022/05/11 08:20:14;;;;;;;4.25;0.57;;;21.30;68.50;;;;;;4984426;28;20042;-85
2022/05/11 08:22:42;;;;;;;3.80;0.50;;;21.40;68.30;;;;;;4967252;28;20377;-85
2022/05/11 08:25:10;;;;;;;2.92;0.40;;;21.60;67.40;;;;;;4925492;28;20046;-81
2022/05/11 08:27:38;;;;;;;7.15;0.60;;;21.60;67.00;;;;;;4948692;28;20043;-84
2022/05/11 08:35:40;;;;;;;5.00;0.45;;;21.90;66.70;;;;;;4964175;28;20031;-84
2022/05/11 08:38:07;;;;;;;3.83;0.57;;;22.00;66.70;;;;;;4966444;28;20046;-84
2022/05/11 08:40:37;;;;;;;2.25;0.40;;;22.00;66.50;;;;;;4932675;28;20036;-83
2022/05/11 08:43:09;;;;;;;2.55;0.40;;;22.10;66.50;;;;;;4948662;28;20043;-83
2022/05/11 08:45:42;;;;;;;4.00;0.50;;;22.20;66.10;;;;;;4964622;28;20057;-83
2022/05/11 08:48:16;;;;;;;1.42;0.35;;;22.20;66.10;;;;;;4955173;28;20293;-83
2022/05/11 08:50:43;;;;;;;2.58;0.40;;;22.30;66.40;;;;;;4979456;28;20050;-86
2022/05/11 08:53:52;;;;;;;3.38;0.70;;;22.50;66.30;;;;;;4991757;28;20041;-86
2022/05/11 08:56:21;;;;;;;2.45;0.50;;;22.60;66.20;;;;;;4953330;29;20114;-83
2022/05/11 08:58:52;;;;;;;4.47;0.60;;;22.60;65.60;;;;;;4923399;29;20060;-85
2022/05/11 09:01:28;;;;;;;3.63;0.70;;;22.70;65.30;;;;;;4936959;28;20538;-86
2022/05/11 09:03:56;;;;;;;3.72;0.50;;;22.70;65.30;;;;;;4970131;28;20043;-87
2022/05/11 09:06:27;;;;;;;2.47;0.50;;;22.70;65.40;;;;;;4950590;28;20058;-83
2022/05/11 09:09:03;;;;;;;4.30;0.60;;;22.80;65.70;;;;;;4975080;28;20038;-85
2022/05/11 09:11:41;;;;;;;3.10;0.60;;;23.00;65.70;;;;;;4943697;28;20039;-86
2022/05/11 09:14:08;;;;;;;3.22;0.45;;;23.10;65.40;;;;;;4971626;28;20034;-85
2022/05/11 09:16:46;;;;;;;2.63;0.47;;;23.20;65.70;;;;;;4969740;28;20048;-85
2022/05/11 09:19:18;;;;;;;5.05;0.50;;;23.40;65.20;;;;;;4955566;28;20039;-86
2022/05/11 09:21:52;;;;;;;3.67;0.50;;;23.60;65.10;;;;;;4954014;28;20051;-83
2022/05/11 09:24:21;;;;;;;5.05;0.52;;;23.80;64.90;;;;;;4969414;28;20046;-82
2022/05/11 09:27:01;;;;;;;2.65;0.63;;;23.80;64.30;;;;;;4955469;28;20031;-82
2022/05/11 09:29:35;;;;;;;6.30;0.93;;;23.90;64.40;;;;;;4959355;28;20042;-82
2022/05/11 09:32:38;;;;;;;1.83;0.52;;;23.90;64.30;;;;;;4972194;28;20035;-85
2022/05/11 09:35:16;;;;;;;2.92;0.68;;;24.00;63.80;;;;;;4885078;29;20048;-83
2022/05/11 09:37:44;;;;;;;2.92;0.60;;;24.00;63.20;;;;;;4936774;28;20046;-83
2022/05/11 09:40:20;;;;;;;8.50;1.02;;;24.00;63.50;;;;;;4943031;28;20481;-83
2022/05/11 09:42:58;;;;;;;3.83;1.00;;;24.00;63.40;;;;;;4947513;28;20398;-85
2022/05/11 09:45:42;;;;;;;3.50;0.50;;;24.00;63.40;;;;;;4953047;28;20034;-81
2022/05/11 09:48:20;;;;;;;6.82;1.10;;;24.10;63.10;;;;;;4954053;28;20045;-82
2022/05/11 09:50:53;;;;;;;3.22;1.15;;;24.20;63.10;;;;;;4954478;28;20039;-83
2022/05/11 09:53:37;;;;;;;4.57;0.88;;;24.30;62.50;;;;;;4942673;28;21329;-81
2022/05/11 09:56:21;;;;;;;4.93;0.68;;;24.30;62.80;;;;;;4971762;28;20035;-82
2022/05/11 09:58:48;;;;;;;3.10;0.80;;;24.30;63.10;;;;;;4958294;28;20031;-81
2022/05/11 10:01:29;;;;;;;3.70;0.68;;;24.40;62.70;;;;;;4954849;28;20042;-82
2022/05/11 10:04:02;;;;;;;4.97;0.95;;;24.50;62.60;;;;;;4969837;28;20038;-81
2022/05/11 10:06:34;;;;;;;4.03;0.93;;;24.60;63.10;;;;;;4974513;28;20067;-82
2022/05/11 10:09:02;;;;;;;2.60;0.70;;;24.60;61.80;;;;;;4953739;28;20035;-82
2022/05/11 10:11:39;;;;;;;4.28;1.13;;;24.50;61.70;;;;;;4950826;28;20054;-82
2022/05/11 10:23:03;;;;;;;3.47;0.60;;;24.80;61.90;;;;;;4963499;28;20058;-82
2022/05/11 10:25:35;;;;;;;5.15;1.00;;;24.90;61.60;;;;;;4952823;28;20384;-82
2022/05/11 10:28:20;;;;;;;4.75;0.93;;;25.10;61.40;;;;;;4961289;28;20043;-82
2022/05/11 10:31:23;;;;;;;3.00;0.90;;;25.30;61.40;;;;;;4955029;28;20043;-82
2022/05/11 10:33:58;;;;;;;3.65;0.80;;;25.50;60.80;;;;;;4978548;28;20051;-82
2022/05/11 10:36:35;;;;;;;3.80;0.60;;;25.90;60.10;;;;;;4973540;28;20041;-84
2022/05/11 10:39:20;;;;;;;4.00;0.70;;;26.10;59.40;;;;;;4956662;28;20042;-82
2022/05/11 10:42:01;;;;;;;4.28;0.80;;;26.30;58.60;;;;;;4971488;28;20490;-81
2022/05/11 10:44:44;;;;;;;3.38;0.68;;;26.40;58.40;;;;;;4983883;28;20059;-83
2022/05/11 10:47:42;;;;;;;4.88;0.90;;;26.60;58.10;;;;;;4966063;28;20057;-82
2022/05/11 10:50:34;;;;;;;4.35;0.98;;;26.80;57.70;;;;;;4969378;28;20065;-82
2022/05/11 10:53:48;;;;;;;5.57;1.05;;;27.00;57.50;;;;;;4968448;28;20406;-82
2022/05/11 10:56:30;;;;;;;4.05;1.15;;;27.30;56.40;;;;;;4969214;28;20050;-82
2022/05/11 10:59:21;;;;;;;4.50;1.77;;;27.50;55.80;;;;;;4953795;28;20039;-82
2022/05/11 11:01:49;;;;;;;;;;;27.70;54.10;;;;;;4984892;28;20038;-82
2022/05/11 11:04:35;;;;;;;3.72;0.90;;;27.90;54.20;;;;;;4975862;28;19921;-84
2022/05/11 11:07:14;;;;;;;2.95;0.82;;;28.10;53.30;;;;;;4982661;28;20062;-83
2022/05/11 11:10:11;;;;;;;4.40;0.50;;;28.40;53.20;;;;;;4971403;28;20057;-83
2022/05/11 11:12:51;;;;;;;5.15;1.10;;;28.70;52.00;;;;;;4975537;28;20049;-82
2022/05/11 11:15:29;;;;;;;4.80;1.05;;;29.10;51.40;;;;;;4968970;28;20042;-83
2022/05/11 11:18:03;;;;;;;2.80;0.82;;;29.40;51.10;;;;;;4971536;28;20034;-84
2022/05/11 11:20:35;;;;;;;4.03;0.60;;;29.60;49.90;;;;;;4968370;28;20058;-81
2022/05/11 11:23:26;;;;;;;2.72;0.47;;;29.70;49.70;;;;;;4952867;28;20027;-83
2022/05/11 11:26:04;;;;;;;3.17;0.47;;;29.90;48.90;;;;;;4961774;28;20487;-81
2022/05/11 11:28:43;;;;;;;4.32;0.55;;;30.00;48.40;;;;;;4973715;28;20047;-80
2022/05/11 11:31:14;;;;;;;2.42;0.52;;;30.10;48.40;;;;;;4957970;28;20058;-80
2022/05/11 11:33:55;;;;;;;6.82;0.57;;;30.10;47.60;;;;;;4945349;28;20053;-80
2022/05/11 11:36:40;;;;;;;3.40;0.63;;;30.20;47.30;;;;;;4973835;28;20031;-80
2022/05/11 11:39:33;;;;;;;2.88;0.70;;;30.40;47.40;;;;;;4963019;28;20351;-83
2022/05/11 11:42:11;;;;;;;3.22;0.80;;;30.60;46.70;;;;;;4963564;28;20050;-80
2022/05/11 11:44:46;;;;;;;3.00;0.50;;;30.70;46.00;;;;;;4970461;28;20039;-79
2022/05/11 11:47:26;;;;;;;3.38;0.70;;;30.90;46.10;;;;;;4968850;28;20041;-80
2022/05/11 11:49:59;;;;;;;2.47;0.70;;;31.20;46.00;;;;;;4982856;28;20051;-81
2022/05/11 11:52:37;;;;;;;3.75;0.60;;;31.30;44.80;;;;;;4970298;28;20050;-80
2022/05/11 11:55:30;;;;;;;3.08;0.63;;;31.50;45.20;;;;;;4966116;28;20375;-80
2022/05/11 11:58:19;;;;;;;1.95;0.60;;;31.90;44.70;;;;;;4968834;28;20039;-81
2022/05/11 12:00:45;;;;;;;3.50;0.52;;;32.30;44.40;;;;;;4961102;28;20399;-79
2022/05/11 12:03:24;;;;;;;3.60;0.80;;;32.60;43.50;;;;;;4947646;28;20038;-80
2022/05/11 12:15:01;;;;;;;4.07;0.70;;;32.60;43.70;;;;;;4951429;28;20576;-84
2022/05/11 12:17:08;;;;;;;3.80;0.60;;;33.30;42.50;;;;;;4962091;28;20034;-84
2022/05/11 12:19:36;;;;;;;4.95;0.70;;;33.50;42.20;;;;;;4940408;28;20042;-85
2022/05/11 12:22:12;;;;;;;3.80;0.52;;;33.70;42.00;;;;;;4945476;28;20035;-83
2022/05/11 12:24:45;;;;;;;3.92;0.88;;;34.00;42.00;;;;;;4963239;28;20043;-89
2022/05/11 12:27:23;;;;;;;4.30;0.68;;;34.00;41.20;;;;;;4967356;28;20058;-87
2022/05/11 12:30:22;;;;;;;6.32;0.68;;;34.10;41.20;;;;;;4958561;28;20061;-88
2022/05/11 12:32:52;;;;;;;6.63;0.57;;;34.20;41.00;;;;;;4962141;28;20419;-88
2022/05/11 12:35:31;;;;;;;5.13;0.80;;;34.40;41.10;;;;;;4968959;28;20027;-89
2022/05/11 12:38:04;;;;;;;3.72;0.70;;;34.70;40.80;;;;;;4953314;28;20646;-88
2022/05/11 12:40:51;;;;;;;3.20;0.60;;;35.00;39.80;;;;;;4953779;28;20039;-84
2022/05/11 12:43:31;;;;;;;6.20;2.50;;;35.00;39.90;;;;;;4968157;28;20043;-84
2022/05/11 12:46:18;;;;;;;4.30;0.80;;;35.40;40.40;;;;;;4967941;28;20039;-83
2022/05/11 12:48:54;;;;;;;3.38;0.63;;;35.60;39.40;;;;;;4934206;28;20046;-82
2022/05/11 12:51:34;;;;;;;3.70;0.82;;;35.80;39.50;;;;;;4971330;28;20038;-82
2022/05/11 12:54:05;;;;;;;3.65;0.70;;;36.10;38.90;;;;;;4964862;28;20035;-82
2022/05/11 12:56:38;;;;;;;3.15;0.55;;;36.30;39.00;;;;;;4966477;28;20475;-82
2022/05/11 12:59:28;;;;;;;3.60;0.75;;;36.40;38.30;;;;;;4968206;28;20043;-83
2022/05/11 13:02:17;;;;;;;2.72;0.68;;;36.40;38.20;;;;;;4941619;28;20034;-82
2022/05/11 13:04:55;;;;;;;4.78;1.13;;;36.40;38.10;;;;;;4989246;28;20037;-85
2022/05/11 13:07:28;;;;;;;3.78;0.93;;;36.60;38.00;;;;;;4954362;28;20506;-84
2022/05/11 13:10:01;;;;;;;4.95;0.75;;;36.70;37.60;;;;;;4957566;28;20039;-83
2022/05/11 13:12:31;;;;;;;4.97;0.93;;;36.80;37.70;;;;;;4975211;28;20028;-81
2022/05/11 13:15:00;;;;;;;5.45;0.82;;;37.00;37.70;;;;;;4957393;28;20047;-82
2022/05/11 13:17:44;;;;;;;3.90;1.00;;;37.10;37.30;;;;;;4956240;28;20050;-83
2022/05/11 13:20:27;;;;;;;4.30;1.27;;;37.20;37.20;;;;;;4985238;28;20054;-83
2022/05/11 13:23:00;;;;;;;6.60;1.38;;;37.30;36.90;;;;;;4969696;28;20035;-83
2022/05/11 13:25:59;;;;;;;2.40;0.80;;;37.50;36.70;;;;;;4970388;28;20031;-83
2022/05/11 13:28:42;;;;;;;4.40;0.90;;;37.70;36.50;;;;;;4954104;28;20051;-91
2022/05/11 13:31:36;;;;;;;2.40;0.80;;;37.90;36.50;;;;;;4961075;28;20391;-91
2022/05/11 13:34:07;;;;;;;4.60;1.23;;;38.20;36.40;;;;;;4970520;28;20502;-89
2022/05/11 13:36:43;;;;;;;6.75;1.52;;;38.30;35.80;;;;;;4973009;28;20158;-87
2022/05/11 13:39:13;;;;;;;4.72;1.13;;;38.30;36.20;;;;;;4969745;28;20054;-89
2022/05/11 13:42:05;;;;;;;3.20;1.08;;;38.50;35.70;;;;;;4955716;28;20051;-87
2022/05/11 13:45:08;;;;;;;4.60;1.30;;;38.70;35.50;;;;;;4974817;28;20038;-90
2022/05/11 13:50:50;;;;;;;4.60;1.15;;;38.90;35.20;;;;;;4988071;28;20073;-89
2022/05/11 13:53:40;;;;;;;5.43;1.00;;;38.60;34.90;;;;;;4962643;28;20494;-88
2022/05/11 13:56:17;;;;;;;2.45;0.77;;;38.10;35.20;;;;;;4967422;28;20047;-90
2022/05/11 13:59:16;;;;;;;4.10;0.80;;;38.00;35.70;;;;;;4965188;28;20035;-91
2022/05/11 14:01:47;;;;;;;5.72;1.00;;;38.10;35.70;;;;;;4983078;28;20047;-89
2022/05/11 14:04:33;;;;;;;4.43;1.20;;;38.50;35.60;;;;;;4953956;28;20142;-88
2022/05/11 14:07:07;;;;;;;4.05;0.70;;;38.50;35.10;;;;;;4975722;28;20051;-87